Check out our new BloomSky Weather System.

Active alerts


No alerts


Thunder radar  blitzortung!


Rain radar more information rain snow radar


Visit our other weather sites:

Template documentation
and downloads

And another site



Weather Underground History page Text

Daily Summary for May 22, 2017 Units:  English    Metric   Both
« Previous Day
Next Day »
Daily Weekly Monthly Yearly Custom
  High: Low: Average:
Temperature: 77.5 °F 66.6 °F 71 °F
Dew Point: 74.3 °F 65.5 °F 69.4 °F
Humidity: 99 % 85 % 95 %
Wind Speed: 9.0 mph 0.0 mph 2.5 mph
Wind Gust: 15.0 mph - -
Wind:- - WSW
Pressure: 30.03 in 29.84 in -
Precipitation: 0.92 in    
Historical Graphs
 
 
Tabular Data for May 22, 2017
Time Temperature Dew Point Pressure Wind Wind Speed Wind Gust Humidity Rainfall Rate (Hourly)
00:04 72.7 °F 70.5 °F 30.03 in Calm   2.0 mph 93 % 0.00 in
00:09 72.7 °F 70.5 °F 30.03 in Calm   3.0 mph 93 % 0.00 in
00:14 72.9 °F 70.7 °F 30.03 in Calm   3.0 mph 93 % 0.00 in
00:19 72.9 °F 71.1 °F 30.03 in Calm   3.0 mph 94 % 0.00 in
00:24 72.9 °F 71.1 °F 30.03 in NNW 2.0 mph 4.0 mph 94 % 0.00 in
00:29 72.9 °F 71.1 °F 30.03 in Calm   4.0 mph 94 % 0.00 in
00:34 72.7 °F 70.9 °F 30.02 in North 2.0 mph 4.0 mph 94 % 0.00 in
00:39 72.7 °F 70.9 °F 30.02 in NNW 3.0 mph 5.0 mph 94 % 0.00 in
00:44 72.7 °F 70.9 °F 30.02 in NNW 1.0 mph 5.0 mph 94 % 0.00 in
00:49 72.7 °F 70.9 °F 30.02 in Calm   5.0 mph 94 % 0.00 in
00:54 72.7 °F 70.9 °F 30.02 in North 1.0 mph 4.0 mph 94 % 0.00 in
00:59 72.7 °F 70.9 °F 30.02 in East 2.0 mph 4.0 mph 94 % 0.00 in
01:04 72.7 °F 70.9 °F 30.01 in North 1.0 mph 4.0 mph 94 % 0.00 in
01:09 72.5 °F 70.7 °F 30.01 in NNW 1.0 mph 5.0 mph 94 % 0.00 in
01:14 72.5 °F 70.7 °F 30.00 in Calm   5.0 mph 94 % 0.00 in
01:19 72.3 °F 70.5 °F 30.00 in NW 2.0 mph 5.0 mph 94 % 0.00 in
01:20 72.5 °F 70.7 °F 30.00 in NW 1.0 mph 5.0 mph 94 % 0.00 in
01:30 72.3 °F 70.5 °F 30.00 in Calm   7.0 mph 94 % 0.00 in
01:35 72.3 °F 70.5 °F 30.00 in North 1.0 mph 7.0 mph 94 % 0.00 in
01:36 72.3 °F 70.5 °F 30.00 in NNW 3.0 mph 7.0 mph 94 % 0.00 in
01:41 72.3 °F 70.5 °F 30.00 in NW 1.0 mph 6.0 mph 94 % 0.00 in
01:46 72.3 °F 70.5 °F 30.01 in Calm   6.0 mph 94 % 0.00 in
01:51 72.3 °F 70.5 °F 30.00 in Calm   5.0 mph 94 % 0.00 in
01:57 72.3 °F 70.5 °F 30.00 in NNW 1.0 mph 5.0 mph 94 % 0.00 in
02:02 72.3 °F 70.5 °F 30.01 in SSE 1.0 mph 8.0 mph 94 % 0.00 in
02:07 72.3 °F 70.5 °F 30.01 in East 2.0 mph 8.0 mph 94 % 0.00 in
02:12 72.3 °F 70.5 °F 30.01 in NNW 2.0 mph 8.0 mph 94 % 0.00 in
02:17 72.3 °F 70.5 °F 30.01 in North 2.0 mph 5.0 mph 94 % 0.00 in
02:22 72.3 °F 70.5 °F 30.01 in Calm   6.0 mph 94 % 0.00 in
02:24 72.3 °F 70.5 °F 30.01 in Calm   6.0 mph 94 % 0.00 in
02:29 72.1 °F 70.3 °F 30.01 in ENE 4.0 mph 6.0 mph 94 % 0.00 in
02:34 72.1 °F 70.3 °F 30.00 in ENE 1.0 mph 7.0 mph 94 % 0.00 in
02:39 72.1 °F 70.3 °F 30.01 in NNW 1.0 mph 7.0 mph 94 % 0.00 in
02:44 72.1 °F 70.3 °F 30.00 in ENE 1.0 mph 7.0 mph 94 % 0.00 in
02:49 72.1 °F 70.3 °F 30.00 in North 2.0 mph 6.0 mph 94 % 0.00 in
02:54 72.1 °F 70.3 °F 30.00 in NNW 5.0 mph 6.0 mph 94 % 0.00 in
02:59 72.1 °F 70.3 °F 29.99 in North 3.0 mph 7.0 mph 94 % 0.00 in
03:04 72.1 °F 70.3 °F 29.99 in East 2.0 mph 7.0 mph 94 % 0.00 in
03:09 72.1 °F 70.3 °F 29.99 in East 3.0 mph 7.0 mph 94 % 0.00 in
03:14 72.1 °F 70.3 °F 29.99 in Calm   7.0 mph 94 % 0.00 in
03:19 72.1 °F 70.3 °F 29.99 in East 2.0 mph 7.0 mph 94 % 0.00 in
03:24 72.1 °F 70.3 °F 29.98 in ESE 1.0 mph 7.0 mph 94 % 0.00 in
03:29 72.1 °F 70.3 °F 29.98 in North 2.0 mph 8.0 mph 94 % 0.00 in
03:34 72.1 °F 70.3 °F 29.97 in ENE 1.0 mph 8.0 mph 94 % 0.00 in
03:39 72.1 °F 70.3 °F 29.97 in East 1.0 mph 8.0 mph 94 % 0.00 in
03:44 72.1 °F 70.3 °F 29.97 in SE 1.0 mph 6.0 mph 94 % 0.00 in
03:49 72.0 °F 70.2 °F 29.97 in WNW 2.0 mph 9.0 mph 94 % 0.00 in
03:54 72.0 °F 70.2 °F 29.97 in Calm   9.0 mph 94 % 0.00 in
03:59 72.0 °F 70.2 °F 29.96 in NNE 1.0 mph 9.0 mph 94 % 0.01 in
04:04 72.0 °F 70.2 °F 29.96 in NNW 1.0 mph 6.0 mph 94 % 0.01 in
04:09 71.8 °F 70.3 °F 29.97 in WSW 1.0 mph 5.0 mph 95 % 0.01 in
04:14 71.8 °F 70.3 °F 29.96 in East 1.0 mph 5.0 mph 95 % 0.01 in
04:19 71.8 °F 70.3 °F 29.97 in Calm   7.0 mph 95 % 0.01 in
04:24 71.8 °F 70.3 °F 29.97 in NE 2.0 mph 7.0 mph 95 % 0.01 in
04:29 71.8 °F 70.3 °F 29.96 in ENE 3.0 mph 7.0 mph 95 % 0.01 in
04:34 71.8 °F 70.3 °F 29.96 in Calm   4.0 mph 95 % 0.01 in
04:35 71.8 °F 70.3 °F 29.96 in ESE 1.0 mph 4.0 mph 95 % 0.02 in
04:40 71.8 °F 70.5 °F 29.96 in Calm   4.0 mph 96 % 0.04 in
04:45 71.8 °F 70.5 °F 29.96 in NNW 1.0 mph 5.0 mph 96 % 0.05 in
04:50 71.6 °F 70.3 °F 29.96 in Calm   7.0 mph 96 % 0.05 in
04:55 71.6 °F 70.3 °F 29.96 in Calm   7.0 mph 96 % 0.05 in
05:00 71.6 °F 70.3 °F 29.96 in ENE 3.0 mph 7.0 mph 96 % 0.05 in
05:05 71.6 °F 70.3 °F 29.96 in NNE 1.0 mph 5.0 mph 96 % 0.05 in
05:10 71.6 °F 70.3 °F 29.94 in NE 1.0 mph 5.0 mph 96 % 0.05 in
05:15 71.4 °F 70.2 °F 29.95 in North 1.0 mph 5.0 mph 96 % 0.05 in
05:20 71.4 °F 70.2 °F 29.94 in NW 1.0 mph 5.0 mph 96 % 0.05 in
05:25 71.4 °F 70.5 °F 29.94 in SE 1.0 mph 5.0 mph 97 % 0.05 in
05:30 71.6 °F 70.7 °F 29.94 in Calm   5.0 mph 97 % 0.05 in
05:35 71.6 °F 70.7 °F 29.94 in SE 1.0 mph 5.0 mph 97 % 0.04 in
05:40 71.6 °F 70.7 °F 29.94 in North 1.0 mph 5.0 mph 97 % 0.02 in
05:45 71.6 °F 70.7 °F 29.94 in East 2.0 mph 5.0 mph 97 % 0.01 in
05:46 71.6 °F 70.7 °F 29.94 in ENE 4.0 mph 5.0 mph 97 % 0.01 in
05:51 71.6 °F 70.7 °F 29.94 in East 2.0 mph 5.0 mph 97 % 0.01 in
05:56 71.6 °F 70.7 °F 29.94 in Calm   5.0 mph 97 % 0.00 in
06:01 71.6 °F 70.7 °F 29.93 in NNE 2.0 mph 5.0 mph 97 % 0.00 in
06:06 71.6 °F 70.7 °F 29.94 in Calm   5.0 mph 97 % 0.00 in
06:11 71.4 °F 70.5 °F 29.94 in NNE 1.0 mph 5.0 mph 97 % 0.00 in
06:16 71.8 °F 70.9 °F 29.94 in Calm   5.0 mph 97 % 0.00 in
06:21 71.8 °F 70.9 °F 29.95 in North 1.0 mph 3.0 mph 97 % 0.00 in
06:26 71.8 °F 70.9 °F 29.95 in Calm   3.0 mph 97 % 0.00 in
06:31 72.0 °F 71.1 °F 29.95 in Calm   2.0 mph 97 % 0.00 in
06:36 72.0 °F 71.1 °F 29.95 in Calm   2.0 mph 97 % 0.00 in
06:41 72.0 °F 71.1 °F 29.96 in Calm   2.0 mph 97 % 0.00 in
06:46 72.0 °F 71.1 °F 29.96 in Calm   2.0 mph 97 % 0.00 in
06:51 72.0 °F 71.1 °F 29.95 in Calm   2.0 mph 97 % 0.00 in
06:57 72.0 °F 71.1 °F 29.95 in Calm   2.0 mph 97 % 0.00 in
07:01 72.1 °F 71.2 °F 29.95 in Calm   2.0 mph 97 % 0.00 in
07:07 72.1 °F 71.2 °F 29.94 in Calm   2.0 mph 97 % 0.00 in
07:12 72.1 °F 71.2 °F 29.94 in NE 1.0 mph 2.0 mph 97 % 0.00 in
07:17 72.1 °F 71.2 °F 29.94 in ENE 2.0 mph 3.0 mph 97 % 0.00 in
07:22 72.3 °F 71.8 °F 29.94 in SE 2.0 mph 4.0 mph 98 % 0.00 in
07:27 72.3 °F 71.8 °F 29.95 in SE 1.0 mph 4.0 mph 98 % 0.00 in
07:32 72.7 °F 72.1 °F 29.96 in SE 4.0 mph 7.0 mph 98 % 0.00 in
07:34 72.7 °F 72.1 °F 29.96 in SE 4.0 mph 7.0 mph 98 % 0.00 in
07:39 72.7 °F 72.1 °F 29.96 in WSW 4.0 mph 7.0 mph 98 % 0.00 in
07:44 72.7 °F 71.8 °F 29.95 in ESE 5.0 mph 11.0 mph 97 % 0.00 in
07:49 72.7 °F 71.8 °F 29.95 in SE 3.0 mph 11.0 mph 97 % 0.00 in
07:54 72.7 °F 71.8 °F 29.94 in SE 3.0 mph 11.0 mph 97 % 0.00 in
07:59 72.7 °F 71.8 °F 29.94 in SE 6.0 mph 11.0 mph 97 % 0.00 in
08:04 72.7 °F 71.8 °F 29.94 in ESE 7.0 mph 11.0 mph 97 % 0.00 in
08:09 72.5 °F 71.6 °F 29.94 in ESE 6.0 mph 11.0 mph 97 % 0.00 in
08:14 72.3 °F 71.4 °F 29.95 in SE 5.0 mph 11.0 mph 97 % 0.00 in
08:19 72.5 °F 71.6 °F 29.95 in ESE 5.0 mph 11.0 mph 97 % 0.00 in
08:24 72.5 °F 71.6 °F 29.94 in South 5.0 mph 11.0 mph 97 % 0.00 in
08:29 72.7 °F 71.4 °F 29.94 in SSW 5.0 mph 11.0 mph 96 % 0.00 in
08:34 72.5 °F 71.2 °F 29.94 in ENE 8.0 mph 11.0 mph 96 % 0.00 in
08:39 72.5 °F 71.2 °F 29.94 in South 4.0 mph 11.0 mph 96 % 0.01 in
08:44 72.5 °F 71.2 °F 29.93 in East 9.0 mph 11.0 mph 96 % 0.01 in
08:49 72.5 °F 71.2 °F 29.93 in SE 6.0 mph 12.0 mph 96 % 0.01 in
08:54 72.5 °F 71.2 °F 29.93 in SE 5.0 mph 12.0 mph 96 % 0.01 in
08:55 72.5 °F 71.2 °F 29.93 in SSE 4.0 mph 12.0 mph 96 % 0.01 in
09:00 72.5 °F 71.2 °F 29.94 in SE 5.0 mph 11.0 mph 96 % 0.02 in
09:05 72.7 °F 71.4 °F 29.94 in SE 2.0 mph 11.0 mph 96 % 0.02 in
09:10 72.9 °F 71.6 °F 29.94 in SE 3.0 mph 8.0 mph 96 % 0.02 in
09:15 73.0 °F 72.1 °F 29.94 in South 5.0 mph 7.0 mph 97 % 0.02 in
09:20 73.2 °F 72.3 °F 29.94 in SSE 5.0 mph 9.0 mph 97 % 0.02 in
09:25 73.2 °F 72.0 °F 29.93 in ESE 4.0 mph 11.0 mph 96 % 0.02 in
09:30 73.6 °F 72.3 °F 29.93 in SE 5.0 mph 11.0 mph 96 % 0.02 in
09:35 73.6 °F 72.3 °F 29.94 in SSE 9.0 mph 11.0 mph 96 % 0.01 in
09:41 73.8 °F 72.5 °F 29.94 in SSW 5.0 mph 10.0 mph 96 % 0.01 in
09:46 73.9 °F 72.7 °F 29.93 in SE 2.0 mph 10.0 mph 96 % 0.01 in
09:50 74.1 °F 72.9 °F 29.93 in SE 5.0 mph 10.0 mph 96 % 0.01 in
09:56 74.1 °F 72.9 °F 29.94 in SE 8.0 mph 8.0 mph 96 % 0.01 in
10:01 74.5 °F 73.2 °F 29.93 in ESE 4.0 mph 9.0 mph 96 % 0.00 in
10:06 74.7 °F 73.2 °F 29.93 in SE 2.0 mph 10.0 mph 95 % 0.00 in
10:11 74.8 °F 73.2 °F 29.94 in SE 3.0 mph 10.0 mph 95 % 0.00 in
10:16 74.8 °F 73.2 °F 29.94 in SSW 5.0 mph 10.0 mph 95 % 0.00 in
10:21 75.0 °F 73.4 °F 29.94 in South 2.0 mph 9.0 mph 95 % 0.00 in
10:26 75.6 °F 73.9 °F 29.94 in Calm   7.0 mph 95 % 0.00 in
10:31 75.7 °F 73.9 °F 29.94 in SSW 4.0 mph 8.0 mph 94 % 0.00 in
10:36 75.9 °F 74.1 °F 29.94 in SE 5.0 mph 8.0 mph 94 % 0.00 in
10:41 75.9 °F 74.1 °F 29.94 in SE 5.0 mph 8.0 mph 94 % 0.00 in
10:46 76.1 °F 73.9 °F 29.94 in SE 3.0 mph 13.0 mph 93 % 0.00 in
10:51 76.3 °F 74.1 °F 29.94 in SSE 3.0 mph 13.0 mph 93 % 0.00 in
10:56 76.5 °F 74.3 °F 29.94 in SSE 8.0 mph 13.0 mph 93 % 0.00 in
11:01 76.8 °F 73.9 °F 29.94 in South 5.0 mph 11.0 mph 91 % 0.00 in
11:06 77.4 °F 74.1 °F 29.93 in SSE 7.0 mph 11.0 mph 90 % 0.00 in
11:11 77.5 °F 73.8 °F 29.93 in SSW 6.0 mph 14.0 mph 88 % 0.00 in
11:14 77.5 °F 74.1 °F 29.93 in SE 5.0 mph 14.0 mph 89 % 0.00 in
11:19 77.5 °F 73.8 °F 29.93 in SW 8.0 mph 14.0 mph 88 % 0.00 in
11:24 77.5 °F 74.1 °F 29.93 in South 5.0 mph 15.0 mph 89 % 0.00 in
11:29 77.4 °F 73.6 °F 29.93 in SE 6.0 mph 15.0 mph 88 % 0.00 in
11:34 77.4 °F 73.6 °F 29.93 in South 4.0 mph 15.0 mph 88 % 0.00 in
11:39 77.2 °F 73.4 °F 29.93 in SW 8.0 mph 13.0 mph 88 % 0.00 in
11:44 75.4 °F 70.5 °F 29.95 in NW 7.0 mph 11.0 mph 85 % 0.00 in
11:49 72.0 °F 68.2 °F 29.95 in WNW 5.0 mph 12.0 mph 88 % 0.03 in
11:54 70.0 °F 67.5 °F 29.96 in NW 7.0 mph 13.0 mph 92 % 0.15 in
11:59 68.9 °F 66.7 °F 29.96 in NW 8.0 mph 13.0 mph 93 % 0.18 in
12:04 68.2 °F 66.7 °F 29.96 in WNW 6.0 mph 13.0 mph 95 % 0.25 in
12:09 67.5 °F 66.2 °F 29.95 in NNW 6.0 mph 12.0 mph 96 % 0.31 in
12:14 67.1 °F 65.8 °F 29.95 in NW 6.0 mph 12.0 mph 96 % 0.35 in
12:19 67.3 °F 66.4 °F 29.94 in North 5.0 mph 12.0 mph 97 % 0.35 in
12:24 67.3 °F 66.4 °F 29.95 in WNW 2.0 mph 12.0 mph 97 % 0.35 in
12:29 67.1 °F 66.2 °F 29.95 in Calm   12.0 mph 97 % 0.35 in
12:34 67.1 °F 66.2 °F 29.95 in NNW 2.0 mph 12.0 mph 97 % 0.35 in
12:39 66.9 °F 66.0 °F 29.95 in WNW 1.0 mph 11.0 mph 97 % 0.36 in
12:44 66.9 °F 66.0 °F 29.95 in NW 2.0 mph 9.0 mph 97 % 0.37 in
12:49 66.9 °F 66.0 °F 29.96 in NW 2.0 mph 8.0 mph 97 % 0.34 in
12:54 66.7 °F 65.8 °F 29.96 in NW 2.0 mph 8.0 mph 97 % 0.24 in
12:59 66.9 °F 66.4 °F 29.96 in NW 4.0 mph 7.0 mph 98 % 0.21 in
13:04 66.9 °F 66.4 °F 29.96 in NW 1.0 mph 7.0 mph 98 % 0.15 in
13:09 66.7 °F 66.2 °F 29.96 in Calm   7.0 mph 98 % 0.10 in
13:14 66.7 °F 66.2 °F 29.96 in Calm   7.0 mph 98 % 0.14 in
13:19 66.7 °F 66.2 °F 29.95 in North 2.0 mph 6.0 mph 98 % 0.17 in
13:24 66.7 °F 66.2 °F 29.95 in NNW 1.0 mph 4.0 mph 98 % 0.21 in
13:29 66.6 °F 66.0 °F 29.94 in NNW 1.0 mph 4.0 mph 98 % 0.26 in
13:30 66.6 °F 66.0 °F 29.94 in Calm   4.0 mph 98 % 0.28 in
13:31 66.7 °F 66.2 °F 29.94 in NW 1.0 mph 4.0 mph 98 % 0.28 in
13:36 66.7 °F 66.2 °F 29.94 in NE 3.0 mph 4.0 mph 98 % 0.29 in
13:41 66.7 °F 66.2 °F 29.94 in NNW 3.0 mph 5.0 mph 98 % 0.30 in
13:46 66.7 °F 66.2 °F 29.94 in NW 1.0 mph 5.0 mph 98 % 0.30 in
13:51 66.9 °F 66.4 °F 29.93 in Calm   5.0 mph 98 % 0.36 in
13:56 66.9 °F 66.4 °F 29.93 in ENE 2.0 mph 4.0 mph 98 % 0.40 in
14:01 67.3 °F 66.7 °F 29.93 in ENE 3.0 mph 4.0 mph 98 % 0.40 in
14:06 67.5 °F 67.1 °F 29.92 in North 1.0 mph 4.0 mph 99 % 0.37 in
14:11 67.6 °F 67.1 °F 29.92 in Calm   7.0 mph 98 % 0.31 in
14:16 67.6 °F 67.1 °F 29.92 in ENE 2.0 mph 7.0 mph 98 % 0.28 in
14:21 67.6 °F 67.1 °F 29.92 in NNW 1.0 mph 7.0 mph 98 % 0.24 in
14:26 67.8 °F 67.3 °F 29.92 in NNW 2.0 mph 5.0 mph 98 % 0.19 in
14:31 68.0 °F 67.6 °F 29.92 in Calm   6.0 mph 99 % 0.18 in
14:36 68.2 °F 67.8 °F 29.91 in NNW 1.0 mph 6.0 mph 99 % 0.17 in
14:41 68.2 °F 67.6 °F 29.91 in NNW 2.0 mph 6.0 mph 98 % 0.15 in
14:46 68.4 °F 68.0 °F 29.91 in NW 4.0 mph 5.0 mph 99 % 0.13 in
14:51 68.4 °F 68.0 °F 29.91 in NNW 3.0 mph 5.0 mph 99 % 0.06 in
14:56 68.4 °F 68.0 °F 29.91 in NW 2.0 mph 8.0 mph 99 % 0.04 in
15:01 68.5 °F 68.2 °F 29.90 in NNW 2.0 mph 8.0 mph 99 % 0.03 in
15:06 68.5 °F 68.2 °F 29.90 in NW 3.0 mph 8.0 mph 99 % 0.03 in
15:11 68.7 °F 68.4 °F 29.90 in NW 2.0 mph 7.0 mph 99 % 0.03 in
15:16 69.1 °F 68.7 °F 29.90 in WNW 2.0 mph 7.0 mph 99 % 0.03 in
15:21 69.1 °F 68.7 °F 29.89 in North 1.0 mph 7.0 mph 99 % 0.03 in
15:26 69.3 °F 68.9 °F 29.89 in NNW 4.0 mph 8.0 mph 99 % 0.03 in
15:31 69.3 °F 68.7 °F 29.89 in NNW 3.0 mph 8.0 mph 98 % 0.02 in
15:36 69.4 °F 69.1 °F 29.89 in WNW 2.0 mph 8.0 mph 99 % 0.01 in
15:41 69.4 °F 68.9 °F 29.89 in NW 5.0 mph 8.0 mph 98 % 0.01 in
15:46 69.6 °F 69.1 °F 29.89 in NNW 2.0 mph 8.0 mph 98 % 0.01 in
15:47 69.6 °F 69.1 °F 29.89 in NW 2.0 mph 8.0 mph 98 % 0.01 in
15:52 69.6 °F 69.1 °F 29.89 in WNW 2.0 mph 8.0 mph 98 % 0.01 in
15:57 69.4 °F 68.9 °F 29.89 in NW 2.0 mph 8.0 mph 98 % 0.00 in
16:02 69.6 °F 69.1 °F 29.89 in WNW 4.0 mph 8.0 mph 98 % 0.00 in
16:07 69.6 °F 69.1 °F 29.89 in WNW 2.0 mph 8.0 mph 98 % 0.00 in
16:12 69.6 °F 68.7 °F 29.89 in NW 1.0 mph 8.0 mph 97 % 0.00 in
16:17 69.6 °F 68.7 °F 29.88 in NW 3.0 mph 8.0 mph 97 % 0.00 in
16:22 69.4 °F 68.5 °F 29.88 in NW 5.0 mph 7.0 mph 97 % 0.00 in
16:27 69.6 °F 69.1 °F 29.88 in NNW 4.0 mph 8.0 mph 98 % 0.00 in
16:32 69.8 °F 69.3 °F 29.88 in NW 2.0 mph 8.0 mph 98 % 0.01 in
16:37 70.3 °F 69.8 °F 29.88 in NW 3.0 mph 8.0 mph 98 % 0.01 in
16:42 70.5 °F 70.0 °F 29.87 in NNE 1.0 mph 5.0 mph 98 % 0.01 in
16:47 70.3 °F 69.4 °F 29.87 in North 2.0 mph 7.0 mph 97 % 0.01 in
16:52 70.5 °F 69.6 °F 29.87 in NW 3.0 mph 7.0 mph 97 % 0.01 in
16:57 70.7 °F 69.8 °F 29.87 in NW 2.0 mph 7.0 mph 97 % 0.01 in
17:02 70.9 °F 70.0 °F 29.87 in NW 3.0 mph 6.0 mph 97 % 0.01 in
17:07 71.2 °F 70.3 °F 29.87 in NW 1.0 mph 6.0 mph 97 % 0.01 in
17:12 71.2 °F 70.0 °F 29.86 in NNW 1.0 mph 6.0 mph 96 % 0.01 in
17:13 71.2 °F 70.0 °F 29.86 in NW 2.0 mph 6.0 mph 96 % 0.01 in
17:18 71.8 °F 70.5 °F 29.86 in WNW 2.0 mph 6.0 mph 96 % 0.01 in
17:23 71.8 °F 70.5 °F 29.86 in North 2.0 mph 6.0 mph 96 % 0.01 in
17:28 72.0 °F 70.7 °F 29.86 in NW 3.0 mph 4.0 mph 96 % 0.01 in
17:34 72.0 °F 70.2 °F 29.86 in NNW 2.0 mph 6.0 mph 94 % 0.00 in
17:39 72.1 °F 70.3 °F 29.86 in NW 4.0 mph 6.0 mph 94 % 0.00 in
17:44 72.1 °F 70.0 °F 29.86 in NNW 5.0 mph 8.0 mph 93 % 0.00 in
17:49 72.1 °F 70.0 °F 29.86 in NW 2.0 mph 8.0 mph 93 % 0.00 in
17:54 72.3 °F 69.8 °F 29.86 in NW 2.0 mph 8.0 mph 92 % 0.00 in
17:59 72.5 °F 70.0 °F 29.86 in NW 4.0 mph 6.0 mph 92 % 0.00 in
18:04 72.5 °F 70.0 °F 29.86 in North 3.0 mph 6.0 mph 92 % 0.00 in
18:09 72.3 °F 69.6 °F 29.86 in WNW 3.0 mph 7.0 mph 91 % 0.00 in
18:14 72.3 °F 69.6 °F 29.86 in WNW 1.0 mph 7.0 mph 91 % 0.00 in
18:19 72.7 °F 70.0 °F 29.86 in NNW 1.0 mph 7.0 mph 91 % 0.00 in
18:24 72.5 °F 69.4 °F 29.86 in WNW 2.0 mph 5.0 mph 90 % 0.00 in
18:29 72.3 °F 69.3 °F 29.86 in NNW 4.0 mph 6.0 mph 90 % 0.00 in
18:34 72.1 °F 69.1 °F 29.85 in WNW 3.0 mph 6.0 mph 90 % 0.00 in
18:39 72.1 °F 69.1 °F 29.85 in WNW 2.0 mph 9.0 mph 90 % 0.00 in
18:44 72.0 °F 68.9 °F 29.85 in NW 2.0 mph 9.0 mph 90 % 0.00 in
18:49 72.0 °F 68.9 °F 29.85 in NW 3.0 mph 9.0 mph 90 % 0.00 in
18:54 71.8 °F 68.7 °F 29.85 in NW 4.0 mph 6.0 mph 90 % 0.00 in
18:59 71.8 °F 68.7 °F 29.85 in WNW 3.0 mph 8.0 mph 90 % 0.00 in
19:04 71.8 °F 68.7 °F 29.85 in NW 2.0 mph 8.0 mph 90 % 0.00 in
19:09 71.6 °F 68.9 °F 29.84 in Calm   8.0 mph 91 % 0.00 in
19:14 71.6 °F 68.9 °F 29.84 in NNE 2.0 mph 6.0 mph 91 % 0.00 in
19:19 71.4 °F 68.4 °F 29.84 in NW 2.0 mph 6.0 mph 90 % 0.00 in
19:24 71.2 °F 68.2 °F 29.84 in NW 3.0 mph 6.0 mph 90 % 0.00 in
19:29 71.1 °F 68.4 °F 29.84 in North 1.0 mph 6.0 mph 91 % 0.00 in
19:34 71.1 °F 68.4 °F 29.84 in North 2.0 mph 6.0 mph 91 % 0.00 in
19:39 71.1 °F 68.4 °F 29.84 in NW 2.0 mph 6.0 mph 91 % 0.00 in
19:44 70.9 °F 68.2 °F 29.85 in WNW 7.0 mph 7.0 mph 91 % 0.00 in
19:49 70.7 °F 67.6 °F 29.85 in NNW 2.0 mph 7.0 mph 90 % 0.00 in
19:54 70.5 °F 67.5 °F 29.85 in NNW 8.0 mph 8.0 mph 90 % 0.00 in
19:59 70.3 °F 67.6 °F 29.85 in NW 2.0 mph 8.0 mph 91 % 0.00 in
20:04 70.2 °F 67.5 °F 29.84 in NW 2.0 mph 8.0 mph 91 % 0.00 in
20:09 70.2 °F 67.5 °F 29.85 in NW 4.0 mph 8.0 mph 91 % 0.00 in
20:14 70.0 °F 67.3 °F 29.85 in North 4.0 mph 7.0 mph 91 % 0.00 in
20:19 69.6 °F 66.9 °F 29.85 in WNW 4.0 mph 7.0 mph 91 % 0.00 in
20:24 69.6 °F 66.9 °F 29.85 in NW 3.0 mph 7.0 mph 91 % 0.00 in
20:29 69.4 °F 66.7 °F 29.85 in NW 3.0 mph 7.0 mph 91 % 0.00 in
20:34 69.4 °F 66.7 °F 29.86 in NW 2.0 mph 9.0 mph 91 % 0.00 in
20:39 69.3 °F 66.6 °F 29.86 in NNW 2.0 mph 9.0 mph 91 % 0.00 in
20:44 69.4 °F 66.7 °F 29.86 in NW 3.0 mph 9.0 mph 91 % 0.00 in
20:49 69.3 °F 66.9 °F 29.86 in NW 2.0 mph 6.0 mph 92 % 0.00 in
20:54 69.3 °F 66.9 °F 29.86 in North 1.0 mph 7.0 mph 92 % 0.00 in
20:59 69.4 °F 67.1 °F 29.86 in NW 2.0 mph 7.0 mph 92 % 0.00 in
21:04 69.3 °F 66.9 °F 29.86 in Calm   7.0 mph 92 % 0.00 in
21:09 69.3 °F 66.9 °F 29.86 in WNW 1.0 mph 4.0 mph 92 % 0.00 in
21:14 69.1 °F 66.7 °F 29.86 in NNW 4.0 mph 6.0 mph 92 % 0.00 in
21:19 68.9 °F 66.6 °F 29.86 in NW 5.0 mph 6.0 mph 92 % 0.00 in
21:24 68.7 °F 66.4 °F 29.86 in NW 6.0 mph 8.0 mph 92 % 0.00 in
21:29 68.5 °F 66.2 °F 29.86 in NW 4.0 mph 9.0 mph 92 % 0.00 in
21:34 68.5 °F 66.2 °F 29.86 in WNW 4.0 mph 9.0 mph 92 % 0.00 in
21:36 68.5 °F 66.2 °F 29.86 in NNE 4.0 mph 9.0 mph 92 % 0.00 in
21:41 68.4 °F 66.0 °F 29.86 in NW 1.0 mph 8.0 mph 92 % 0.00 in
21:46 68.5 °F 66.2 °F 29.86 in NNW 3.0 mph 8.0 mph 92 % 0.00 in
21:51 68.5 °F 66.2 °F 29.87 in NNW 2.0 mph 7.0 mph 92 % 0.00 in
21:56 68.5 °F 66.2 °F 29.86 in WNW 4.0 mph 5.0 mph 92 % 0.00 in
22:01 68.4 °F 66.0 °F 29.86 in North 3.0 mph 9.0 mph 92 % 0.00 in
22:06 68.4 °F 66.0 °F 29.86 in NW 1.0 mph 9.0 mph 92 % 0.00 in
22:11 68.4 °F 66.0 °F 29.86 in NW 4.0 mph 9.0 mph 92 % 0.00 in
22:16 68.4 °F 66.0 °F 29.87 in WNW 5.0 mph 8.0 mph 92 % 0.00 in
22:21 68.4 °F 66.0 °F 29.87 in NW 1.0 mph 8.0 mph 92 % 0.00 in
22:26 68.4 °F 66.0 °F 29.87 in NNW 5.0 mph 8.0 mph 92 % 0.00 in
22:31 68.4 °F 66.0 °F 29.87 in NW 1.0 mph 8.0 mph 92 % 0.00 in
22:36 68.4 °F 66.0 °F 29.86 in NNW 3.0 mph 7.0 mph 92 % 0.00 in
22:41 68.4 °F 66.0 °F 29.86 in NW 1.0 mph 7.0 mph 92 % 0.00 in
22:46 68.2 °F 66.0 °F 29.87 in North 3.0 mph 6.0 mph 93 % 0.00 in
22:51 68.2 °F 66.0 °F 29.87 in NW 3.0 mph 6.0 mph 93 % 0.00 in
22:56 67.8 °F 65.5 °F 29.87 in NW 2.0 mph 8.0 mph 92 % 0.00 in
23:01 67.8 °F 65.7 °F 29.87 in NNW 1.0 mph 8.0 mph 93 % 0.00 in
23:06 67.6 °F 65.5 °F 29.87 in NNE 5.0 mph 8.0 mph 93 % 0.00 in
23:11 67.6 °F 65.5 °F 29.87 in NW 3.0 mph 8.0 mph 93 % 0.00 in
23:16 67.6 °F 65.5 °F 29.87 in NW 5.0 mph 8.0 mph 93 % 0.00 in
23:21 67.6 °F 65.5 °F 29.87 in North 3.0 mph 8.0 mph 93 % 0.00 in
23:26 67.6 °F 65.5 °F 29.87 in NNW 2.0 mph 6.0 mph 93 % 0.00 in
23:31 67.6 °F 65.5 °F 29.86 in North 1.0 mph 6.0 mph 93 % 0.00 in
23:36 67.6 °F 65.5 °F 29.86 in NW 1.0 mph 5.0 mph 93 % 0.00 in
23:41 67.6 °F 65.5 °F 29.86 in North 2.0 mph 5.0 mph 93 % 0.00 in
23:46 67.6 °F 65.5 °F 29.87 in NW 1.0 mph 7.0 mph 93 % 0.00 in
23:51 67.8 °F 65.5 °F 29.86 in Calm   7.0 mph 92 % 0.00 in
23:56 67.8 °F 65.5 °F 29.86 in Calm   7.0 mph 92 % 0.00 in
Spring, Texas: Villages of Bridgestone
Compliments of Weather Underground - 3 mb

Script developed by  Jim McMurry - jmcmurry@mwt.net Adapted for the template by  Wim van der Kuil - Leuven-Template.eu

You find our weather info also at:

UK Metoffice

WeatherCloud

Weather Underground

Mid-South Weather Network

AWEKAS

Citizen Weather Observer Program (CWOP)

HAMweather, WeatherForYou, PWS Weather

Equipment we use:

Weather-station
Davis Vantage Vue

Weather-program
Meteohub

Weather-server
Debian 7.9 x86 (Guest)

Provider
DreamHost

Davis Vantage Vue

Meteohub

Debian 7.9 x86 (Guest)

DreamHost